createdAt,value
2023-05-11T00:00:44.674Z,82.84
2023-05-11T00:01:47.731Z,83.42
2023-05-11T00:02:49.708Z,83.49
2023-05-11T00:03:52.124Z,83.15
2023-05-11T00:04:54.644Z,84.33
2023-05-11T00:05:56.460Z,84.67
2023-05-11T00:06:58.302Z,85.06
2023-05-11T00:08:00.207Z,84.91
2023-05-11T00:09:02.205Z,85.33
2023-05-11T00:10:04.093Z,84.52
2023-05-11T00:11:07.948Z,83.73
2023-05-11T00:12:09.831Z,83.39
2023-05-11T00:13:11.734Z,83.46
2023-05-11T00:14:13.591Z,83.11
2023-05-11T00:15:15.819Z,82.80
2023-05-11T00:16:17.695Z,82.52
2023-05-11T00:17:20.828Z,82.30
2023-05-11T00:18:22.822Z,82.15
2023-05-11T00:19:24.799Z,81.88
2023-05-11T00:20:26.687Z,81.97
2023-05-11T00:21:28.599Z,81.74
2023-05-11T00:22:30.643Z,81.56
2023-05-11T00:23:32.484Z,81.56
2023-05-11T00:24:34.310Z,81.60
2023-05-11T00:25:36.160Z,81.39
2023-05-11T00:26:38.094Z,82.05
2023-05-11T00:27:41.341Z,83.11
2023-05-11T00:28:43.266Z,84.10
2023-05-11T00:29:45.232Z,84.73
2023-05-11T00:30:47.046Z,85.24
2023-05-11T00:31:48.943Z,85.67
2023-05-11T00:32:52.439Z,85.44
2023-05-11T00:33:56.976Z,84.87
2023-05-11T00:34:58.894Z,84.79
2023-05-11T00:36:01.068Z,84.67
2023-05-11T00:37:03.238Z,84.39
2023-05-11T00:38:05.100Z,83.97
2023-05-11T00:39:06.971Z,83.56
2023-05-11T00:40:09.044Z,84.11
2023-05-11T00:41:10.962Z,84.38
2023-05-11T00:42:12.811Z,83.73
2023-05-11T00:43:14.704Z,84.23
2023-05-11T00:44:16.646Z,84.05
2023-05-11T00:45:18.690Z,83.93
2023-05-11T00:46:20.981Z,84.42
2023-05-11T00:47:22.941Z,84.00
2023-05-11T00:48:24.862Z,84.04
2023-05-11T00:49:27.114Z,83.78
2023-05-11T00:50:29.131Z,83.46
2023-05-11T00:51:33.130Z,82.95
2023-05-11T00:52:35.109Z,82.66
2023-05-11T00:53:37.030Z,82.72
2023-05-11T00:54:39.896Z,83.02
2023-05-11T00:55:42.399Z,82.78
2023-05-11T00:56:44.281Z,82.44
2023-05-11T00:57:46.535Z,82.57
2023-05-11T00:58:48.875Z,82.83
2023-05-11T00:59:50.779Z,83.36
2023-05-11T01:00:52.752Z,84.31
2023-05-11T01:01:54.695Z,84.05
2023-05-11T01:02:56.784Z,83.42
2023-05-11T01:03:58.791Z,83.75
2023-05-11T01:05:01.932Z,83.68
2023-05-11T01:06:09.715Z,83.15
2023-05-11T01:07:11.485Z,82.83
2023-05-11T01:08:17.999Z,82.58
2023-05-11T01:09:45.193Z,82.13
2023-05-11T01:10:58.119Z,82.09
2023-05-11T01:12:18.817Z,82.06
2023-05-11T01:13:42.950Z,82.70
2023-05-11T01:14:57.078Z,82.90
2023-05-11T01:16:00.609Z,83.82
2023-05-11T01:17:06.271Z,84.25
2023-05-11T01:18:17.390Z,83.79
2023-05-11T01:19:24.922Z,83.52
2023-05-11T01:20:29.749Z,83.70
2023-05-11T01:21:35.731Z,83.67
2023-05-11T01:22:49.487Z,84.16
2023-05-11T01:24:10.006Z,84.79
2023-05-11T01:25:20.907Z,84.34
2023-05-11T01:26:37.668Z,84.29
2023-05-11T01:27:53.601Z,83.76
2023-05-11T01:29:13.927Z,83.20
2023-05-11T01:30:26.607Z,83.00
2023-05-11T01:31:30.961Z,83.46
2023-05-11T01:32:36.438Z,83.89
2023-05-11T01:33:41.385Z,84.31
2023-05-11T01:34:44.355Z,84.59
2023-05-11T01:35:53.220Z,84.82
2023-05-11T01:36:58.898Z,84.83
2023-05-11T01:38:02.126Z,84.78
2023-05-11T01:39:08.399Z,84.69
2023-05-11T01:40:13.031Z,84.69
2023-05-11T01:41:22.661Z,84.18
2023-05-11T01:42:37.368Z,84.21
2023-05-11T01:43:40.775Z,83.83
2023-05-11T01:44:44.945Z,83.60
2023-05-11T01:45:50.462Z,82.93
2023-05-11T01:46:53.567Z,82.90
2023-05-11T01:47:56.293Z,82.69
2023-05-11T01:48:59.928Z,82.64
2023-05-11T01:50:03.771Z,82.74
2023-05-11T01:51:06.128Z,82.99
2023-05-11T01:52:08.932Z,82.74
2023-05-11T01:53:12.762Z,82.79
2023-05-11T01:54:14.853Z,82.91
2023-05-11T01:55:17.951Z,83.19
2023-05-11T01:56:22.281Z,83.51
2023-05-11T01:57:24.832Z,84.59
2023-05-11T01:58:28.832Z,84.59
2023-05-11T01:59:32.735Z,84.69
2023-05-11T02:00:34.795Z,84.29
2023-05-11T02:01:37.170Z,84.19
2023-05-11T02:02:39.716Z,84.19
2023-05-11T02:03:43.132Z,83.89
2023-05-11T02:04:46.296Z,83.75
2023-05-11T02:05:48.822Z,84.06
2023-05-11T02:06:51.423Z,83.53
2023-05-11T02:07:54.682Z,83.67
2023-05-11T02:08:57.136Z,83.52
2023-05-11T02:10:00.782Z,83.45
2023-05-11T02:11:03.387Z,84.08
2023-05-11T02:12:06.069Z,84.31
2023-05-11T02:13:08.705Z,84.45
2023-05-11T02:14:12.344Z,84.83
2023-05-11T02:15:15.414Z,85.08
2023-05-11T02:16:18.658Z,85.73
2023-05-11T02:17:22.470Z,85.48
2023-05-11T02:18:24.436Z,85.85
2023-05-11T02:19:26.974Z,85.31
2023-05-11T02:20:29.091Z,84.82
2023-05-11T02:21:32.804Z,85.10
2023-05-11T02:22:36.136Z,85.29
2023-05-11T02:23:38.489Z,84.87
2023-05-11T02:24:40.564Z,84.38
2023-05-11T02:25:43.685Z,84.16
2023-05-11T02:26:46.428Z,83.39
2023-05-11T02:27:48.230Z,84.29
2023-05-11T02:28:50.096Z,84.60
2023-05-11T02:29:52.038Z,84.15
2023-05-11T02:30:56.197Z,84.26
2023-05-11T02:32:02.046Z,84.08
2023-05-11T02:33:06.330Z,84.55
2023-05-11T02:34:21.754Z,85.19
2023-05-11T02:35:25.918Z,85.16
2023-05-11T02:36:30.010Z,85.53
2023-05-11T02:37:34.008Z,85.28
2023-05-11T02:38:36.538Z,85.27
2023-05-11T02:39:39.306Z,85.43
2023-05-11T02:40:46.135Z,85.58
2023-05-11T02:41:50.361Z,85.93
2023-05-11T02:42:57.484Z,86.29
2023-05-11T02:44:01.828Z,85.75
2023-05-11T02:45:08.751Z,86.01
2023-05-11T02:46:14.838Z,86.10
2023-05-11T02:47:18.664Z,85.57
2023-05-11T02:48:23.088Z,85.73
2023-05-11T02:49:25.933Z,85.87
2023-05-11T02:50:30.470Z,85.79
2023-05-11T02:51:36.894Z,86.18
2023-05-11T02:52:41.836Z,85.52
2023-05-11T02:53:45.735Z,86.00
2023-05-11T02:54:49.877Z,85.85
2023-05-11T02:55:52.006Z,86.30
2023-05-11T02:56:55.150Z,86.10
2023-05-11T02:57:57.146Z,85.82
2023-05-11T02:58:59.115Z,86.13
2023-05-11T03:00:01.525Z,86.18
2023-05-11T03:01:06.914Z,86.34
2023-05-11T03:02:08.971Z,85.80
2023-05-11T03:03:11.078Z,85.64
2023-05-11T03:04:13.548Z,85.78
2023-05-11T03:05:15.546Z,85.44
2023-05-11T03:06:17.474Z,85.50
2023-05-11T03:07:19.357Z,86.05
2023-05-11T03:08:21.383Z,85.46
2023-05-11T03:09:23.441Z,85.34
2023-05-11T03:10:27.109Z,85.41
2023-05-11T03:11:29.123Z,85.50
2023-05-11T03:12:34.188Z,85.17
2023-05-11T03:13:36.377Z,85.53
2023-05-11T03:14:38.581Z,85.29
2023-05-11T03:15:41.244Z,84.68
2023-05-11T03:16:43.232Z,85.08
2023-05-11T03:17:46.950Z,85.52
2023-05-11T03:18:49.606Z,85.73
2023-05-11T03:19:52.128Z,85.79
2023-05-11T03:20:53.995Z,85.88
2023-05-11T03:21:56.951Z,85.78
2023-05-11T03:22:59.452Z,85.46
2023-05-11T03:24:01.583Z,85.71
2023-05-11T03:25:04.073Z,85.64
2023-05-11T03:26:07.223Z,85.69
2023-05-11T03:27:09.803Z,86.21
2023-05-11T03:28:13.153Z,86.15
2023-05-11T03:29:16.247Z,86.50
2023-05-11T03:30:19.668Z,85.97
2023-05-11T03:31:22.554Z,86.14
2023-05-11T03:32:24.724Z,86.44
2023-05-11T03:33:26.781Z,86.11
2023-05-11T03:34:29.307Z,86.27
2023-05-11T03:35:33.756Z,86.73
2023-05-11T03:36:36.135Z,86.62
2023-05-11T03:37:38.725Z,86.27
2023-05-11T03:38:40.779Z,85.99
2023-05-11T03:39:44.519Z,86.53
2023-05-11T03:40:46.683Z,86.36
2023-05-11T03:41:50.865Z,86.76
2023-05-11T03:42:54.913Z,86.73
2023-05-11T03:43:58.721Z,86.61
2023-05-11T03:45:01.562Z,86.52
2023-05-11T03:46:04.460Z,86.43
2023-05-11T03:47:07.096Z,86.16
2023-05-11T03:48:09.322Z,86.06
2023-05-11T03:49:13.757Z,85.92
2023-05-11T03:50:17.474Z,86.30
2023-05-11T03:51:20.306Z,86.86
2023-05-11T03:52:22.795Z,86.79
2023-05-11T03:53:24.742Z,86.98
2023-05-11T03:54:27.210Z,86.85
2023-05-11T03:55:29.234Z,86.76
2023-05-11T03:56:31.196Z,86.87
2023-05-11T03:57:33.327Z,86.83
2023-05-11T03:58:38.959Z,87.49
2023-05-11T03:59:41.057Z,86.90
2023-05-11T04:00:43.464Z,87.01
2023-05-11T04:01:45.840Z,87.03
2023-05-11T04:02:47.745Z,86.62
2023-05-11T04:03:50.261Z,86.33
2023-05-11T04:04:53.305Z,86.60
2023-05-11T04:05:55.352Z,86.55
2023-05-11T04:06:57.790Z,86.41
2023-05-11T04:07:59.706Z,86.14
2023-05-11T04:09:01.529Z,86.08
2023-05-11T04:10:04.230Z,86.00
2023-05-11T04:11:06.155Z,86.01
2023-05-11T04:12:07.970Z,86.09
2023-05-11T04:13:09.831Z,86.45
2023-05-11T04:14:11.763Z,86.88
2023-05-11T04:15:13.622Z,86.59
2023-05-11T04:16:15.786Z,86.80
2023-05-11T04:17:17.617Z,86.67
2023-05-11T04:18:19.517Z,87.00
2023-05-11T04:19:21.401Z,86.50
2023-05-11T04:20:23.190Z,87.27
2023-05-11T04:21:25.115Z,87.21
2023-05-11T04:22:26.973Z,86.84
2023-05-11T04:23:28.802Z,86.46
2023-05-11T04:24:31.035Z,87.12
2023-05-11T04:25:32.901Z,86.74
2023-05-11T04:26:34.884Z,86.35
2023-05-11T04:27:36.709Z,86.12
2023-05-11T04:28:38.516Z,85.79
2023-05-11T04:29:40.391Z,85.60
2023-05-11T04:30:42.192Z,85.69
2023-05-11T04:31:44.225Z,85.70
2023-05-11T04:32:46.228Z,86.07
2023-05-11T04:33:48.143Z,86.38
2023-05-11T04:34:50.008Z,86.43
2023-05-11T04:35:52.714Z,86.85
2023-05-11T04:36:54.571Z,87.05
2023-05-11T04:37:56.838Z,87.13
2023-05-11T04:38:58.670Z,86.27
2023-05-11T04:40:00.627Z,86.46
2023-05-11T04:41:06.066Z,86.32
2023-05-11T04:42:07.969Z,86.42
2023-05-11T04:43:09.797Z,85.76
2023-05-11T04:44:11.961Z,85.31
2023-05-11T04:45:13.874Z,85.64
2023-05-11T04:46:15.885Z,85.24
2023-05-11T04:47:17.853Z,85.03
2023-05-11T04:48:20.836Z,85.16
2023-05-11T04:49:23.005Z,85.35
2023-05-11T04:50:24.974Z,85.70
2023-05-11T04:51:26.794Z,85.59
2023-05-11T04:52:28.720Z,84.95
2023-05-11T04:53:30.609Z,85.15
2023-05-11T04:54:32.450Z,84.94
2023-05-11T04:55:34.400Z,85.28
2023-05-11T04:56:40.766Z,85.62
2023-05-11T04:57:42.628Z,85.66
2023-05-11T04:58:44.469Z,85.34
2023-05-11T04:59:46.360Z,84.95
2023-05-11T05:00:48.278Z,85.21
2023-05-11T05:01:50.140Z,85.16
2023-05-11T05:02:52.206Z,85.29
2023-05-11T05:03:54.076Z,85.36
2023-05-11T05:04:56.036Z,84.86
2023-05-11T05:05:58.575Z,84.93
2023-05-11T05:07:00.476Z,84.35
2023-05-11T05:08:02.317Z,84.58
2023-05-11T05:09:04.380Z,85.05
2023-05-11T05:10:09.265Z,85.17
2023-05-11T05:11:11.366Z,85.31
2023-05-11T05:12:13.327Z,85.24
2023-05-11T05:13:17.029Z,84.91
2023-05-11T05:14:18.912Z,84.68
2023-05-11T05:15:21.720Z,84.15
2023-05-11T05:16:23.592Z,84.11
2023-05-11T05:17:25.494Z,84.22
2023-05-11T05:18:27.541Z,84.19
2023-05-11T05:19:29.516Z,84.13
2023-05-11T05:20:31.438Z,84.09
2023-05-11T05:21:34.559Z,83.85
2023-05-11T05:22:36.566Z,84.14
2023-05-11T05:23:38.436Z,84.28
2023-05-11T05:24:40.354Z,84.53
2023-05-11T05:25:42.292Z,84.93
2023-05-11T05:26:44.093Z,84.82
2023-05-11T05:27:45.979Z,85.14
2023-05-11T05:28:47.819Z,85.01
2023-05-11T05:29:49.693Z,84.84
2023-05-11T05:30:51.769Z,85.07
2023-05-11T05:31:53.666Z,84.65
2023-05-11T05:32:55.520Z,84.61
2023-05-11T05:33:57.390Z,84.58
2023-05-11T05:34:59.273Z,84.32
2023-05-11T05:36:01.246Z,84.17
2023-05-11T05:37:03.213Z,84.16
2023-05-11T05:38:05.108Z,83.99
2023-05-11T05:39:12.392Z,83.68
2023-05-11T05:40:14.274Z,83.85
2023-05-11T05:41:16.132Z,84.00
2023-05-11T05:42:18.084Z,83.84
2023-05-11T05:43:20.014Z,83.70
2023-05-11T05:44:21.886Z,83.56
2023-05-11T05:45:23.772Z,83.73
2023-05-11T05:46:25.710Z,83.85
2023-05-11T05:47:27.714Z,83.73
2023-05-11T05:48:29.630Z,83.62
2023-05-11T05:49:31.576Z,84.03
2023-05-11T05:50:33.850Z,84.07
2023-05-11T05:51:35.811Z,84.35
2023-05-11T05:52:37.700Z,84.31
2023-05-11T05:53:39.951Z,85.08
2023-05-11T05:54:42.116Z,84.85
2023-05-11T05:55:44.012Z,84.77
2023-05-11T05:56:46.025Z,84.43
2023-05-11T05:57:47.835Z,84.27
2023-05-11T05:58:49.670Z,83.54
2023-05-11T05:59:51.702Z,83.42
2023-05-11T06:00:53.689Z,84.10
2023-05-11T06:01:55.583Z,83.76
2023-05-11T06:02:57.580Z,83.95
2023-05-11T06:03:59.717Z,83.58
2023-05-11T06:05:01.906Z,83.34
2023-05-11T06:06:03.891Z,83.57
2023-05-11T06:07:05.708Z,83.14
2023-05-11T06:08:11.193Z,82.74
2023-05-11T06:09:13.897Z,82.88
2023-05-11T06:10:15.930Z,82.88
2023-05-11T06:11:17.872Z,82.56
2023-05-11T06:12:19.714Z,82.60
2023-05-11T06:13:21.515Z,82.60
2023-05-11T06:14:23.496Z,82.72
2023-05-11T06:15:25.342Z,83.21
2023-05-11T06:16:28.113Z,83.47
2023-05-11T06:17:30.288Z,83.14
2023-05-11T06:18:32.204Z,83.02
2023-05-11T06:19:34.026Z,83.41
2023-05-11T06:20:35.887Z,83.26
2023-05-11T06:21:37.862Z,83.00
2023-05-11T06:22:39.968Z,83.12
2023-05-11T06:23:41.868Z,83.33
2023-05-11T06:24:43.840Z,83.26
2023-05-11T06:25:45.729Z,83.26
2023-05-11T06:26:47.567Z,82.52
2023-05-11T06:27:49.424Z,82.61
2023-05-11T06:28:52.421Z,82.68
2023-05-11T06:29:54.397Z,82.67
2023-05-11T06:30:59.628Z,82.90
2023-05-11T06:32:01.710Z,82.42
2023-05-11T06:33:03.718Z,82.28
2023-05-11T06:34:05.591Z,82.82
2023-05-11T06:35:07.733Z,82.69
2023-05-11T06:36:09.785Z,82.58
2023-05-11T06:37:11.685Z,82.82
2023-05-11T06:38:13.522Z,83.00
2023-05-11T06:39:15.482Z,82.40
2023-05-11T06:40:17.789Z,82.30
2023-05-11T06:41:19.816Z,82.86
2023-05-11T06:42:23.578Z,82.52
2023-05-11T06:43:25.402Z,82.34
2023-05-11T06:44:27.329Z,82.38
2023-05-11T06:45:29.346Z,82.59
2023-05-11T06:46:31.502Z,81.94
2023-05-11T06:47:33.520Z,82.58
2023-05-11T06:48:35.489Z,82.32
2023-05-11T06:49:37.370Z,82.36
2023-05-11T06:50:39.253Z,82.43
2023-05-11T06:51:41.785Z,82.77
2023-05-11T06:52:43.673Z,83.19
2023-05-11T06:53:45.730Z,83.50
2023-05-11T06:54:47.645Z,83.42
2023-05-11T06:55:49.504Z,83.26
2023-05-11T06:56:51.487Z,82.96
2023-05-11T06:57:53.405Z,82.81
2023-05-11T06:58:55.330Z,82.78
2023-05-11T06:59:57.167Z,82.67
2023-05-11T07:00:59.042Z,82.50
2023-05-11T07:02:01.036Z,82.47
2023-05-11T07:03:03.160Z,82.63
2023-05-11T07:04:05.193Z,82.60
2023-05-11T07:05:07.255Z,82.66
2023-05-11T07:06:09.122Z,82.56
2023-05-11T07:07:12.411Z,82.55
2023-05-11T07:08:14.505Z,82.36
2023-05-11T07:09:16.346Z,82.30
2023-05-11T07:10:18.519Z,82.79
2023-05-11T07:11:20.583Z,82.24
2023-05-11T07:12:23.174Z,82.43
2023-05-11T07:13:25.103Z,82.86
2023-05-11T07:14:26.944Z,82.64
2023-05-11T07:15:28.966Z,82.24
2023-05-11T07:16:30.945Z,82.49
2023-05-11T07:17:33.336Z,81.80
2023-05-11T07:18:35.365Z,82.15
2023-05-11T07:19:37.946Z,81.97
2023-05-11T07:20:41.182Z,81.92
2023-05-11T07:21:43.143Z,81.87
2023-05-11T07:22:45.061Z,81.86
2023-05-11T07:23:49.066Z,81.61
2023-05-11T07:24:50.933Z,81.67
2023-05-11T07:25:53.957Z,81.53
2023-05-11T07:26:57.647Z,81.77
2023-05-11T07:27:59.568Z,81.73
2023-05-11T07:29:01.487Z,81.74
2023-05-11T07:30:06.434Z,81.87
2023-05-11T07:31:08.404Z,81.61
2023-05-11T07:32:10.309Z,81.62
2023-05-11T07:33:12.152Z,81.78
2023-05-11T07:34:14.151Z,81.49
2023-05-11T07:35:16.091Z,81.64
2023-05-11T07:36:18.919Z,81.35
2023-05-11T07:37:20.807Z,81.22
2023-05-11T07:38:22.786Z,81.26
2023-05-11T07:39:24.686Z,81.03
2023-05-11T07:40:26.682Z,81.32
2023-05-11T07:41:29.153Z,81.45
2023-05-11T07:42:31.027Z,81.15
2023-05-11T07:43:32.893Z,81.17
2023-05-11T07:44:34.766Z,81.04
2023-05-11T07:45:36.754Z,81.55
2023-05-11T07:46:38.795Z,81.59
2023-05-11T07:47:40.673Z,81.71
2023-05-11T07:48:42.765Z,81.44
2023-05-11T07:49:44.783Z,81.41
2023-05-11T07:50:46.622Z,81.61
2023-05-11T07:51:48.571Z,81.57
2023-05-11T07:52:50.528Z,82.02
2023-05-11T07:53:52.432Z,81.98
2023-05-11T07:54:54.271Z,81.97
2023-05-11T07:55:56.442Z,81.46
2023-05-11T07:56:58.390Z,81.61
2023-05-11T07:58:00.286Z,81.81
2023-05-11T07:59:02.164Z,82.01
2023-05-11T08:00:05.949Z,82.05
2023-05-11T08:01:07.843Z,81.97
2023-05-11T08:02:11.570Z,82.01
2023-05-11T08:03:16.088Z,82.10
2023-05-11T08:04:18.021Z,81.70
2023-05-11T08:05:20.466Z,81.89
2023-05-11T08:06:22.566Z,82.09
2023-05-11T08:07:25.236Z,81.87
2023-05-11T08:08:27.280Z,81.33
2023-05-11T08:09:29.865Z,81.16
2023-05-11T08:10:32.344Z,80.62
2023-05-11T08:11:34.540Z,80.64
2023-05-11T08:12:37.421Z,80.80
2023-05-11T08:13:39.254Z,80.56
2023-05-11T08:14:43.392Z,80.38
2023-05-11T08:15:45.433Z,80.63
2023-05-11T08:16:47.563Z,80.40
2023-05-11T08:17:49.604Z,80.03
2023-05-11T08:18:51.535Z,79.57
2023-05-11T08:19:53.474Z,79.41
2023-05-11T08:20:55.354Z,79.31
2023-05-11T08:21:57.218Z,79.21
2023-05-11T08:22:59.131Z,79.85
2023-05-11T08:24:01.007Z,79.53
2023-05-11T08:25:04.011Z,79.83
2023-05-11T08:26:05.980Z,79.94
2023-05-11T08:27:07.932Z,79.41
2023-05-11T08:28:09.808Z,79.13
2023-05-11T08:29:12.671Z,78.97
2023-05-11T08:30:14.668Z,79.00
2023-05-11T08:31:18.875Z,78.17
2023-05-11T08:32:20.768Z,78.45
2023-05-11T08:33:36.532Z,77.98
2023-05-11T08:34:40.025Z,78.44
2023-05-11T08:35:42.106Z,78.17
2023-05-11T08:36:44.747Z,77.92
2023-05-11T08:37:46.631Z,78.05
2023-05-11T08:38:48.734Z,77.86
2023-05-11T08:39:51.582Z,77.58
2023-05-11T08:40:53.561Z,77.24
2023-05-11T08:41:57.955Z,77.75
2023-05-11T08:43:00.656Z,77.68
2023-05-11T08:44:03.161Z,77.40
2023-05-11T08:45:06.357Z,77.36
2023-05-11T08:46:08.918Z,77.18
2023-05-11T08:47:22.476Z,77.05
2023-05-11T08:48:24.981Z,76.85
2023-05-11T08:49:27.782Z,77.26
2023-05-11T08:50:29.622Z,76.87
2023-05-11T08:51:33.006Z,77.36
2023-05-11T08:52:34.900Z,77.53
2023-05-11T08:53:36.751Z,77.89
2023-05-11T08:54:38.911Z,77.96
2023-05-11T08:55:42.241Z,78.11
2023-05-11T08:56:44.095Z,77.57
2023-05-11T08:57:47.074Z,76.96
2023-05-11T08:58:50.399Z,76.99
2023-05-11T08:59:52.381Z,76.88
2023-05-11T09:00:54.707Z,76.38
2023-05-11T09:01:57.494Z,76.41
2023-05-11T09:03:00.195Z,76.56
2023-05-11T09:04:02.407Z,77.03
2023-05-11T09:05:04.628Z,76.50
2023-05-11T09:06:07.663Z,76.59
2023-05-11T09:07:11.023Z,75.97
2023-05-11T09:08:14.004Z,76.15
2023-05-11T09:09:16.531Z,75.91
2023-05-11T09:10:18.741Z,76.23
2023-05-11T09:11:21.503Z,75.91
2023-05-11T09:12:26.605Z,76.29
2023-05-11T09:13:29.653Z,76.77
2023-05-11T09:14:31.535Z,75.40
2023-05-11T09:15:37.118Z,75.44
2023-05-11T09:16:39.678Z,75.99
2023-05-11T09:17:41.614Z,76.35
2023-05-11T09:18:47.376Z,76.49
2023-05-11T09:19:59.980Z,76.14
2023-05-11T09:21:05.026Z,76.44
2023-05-11T09:22:07.090Z,76.06
2023-05-11T09:23:09.001Z,76.24
2023-05-11T09:24:13.954Z,76.65
2023-05-11T09:25:18.029Z,76.44
2023-05-11T09:26:21.108Z,76.81
2023-05-11T09:27:25.114Z,76.94
2023-05-11T09:28:27.594Z,77.26
2023-05-11T09:29:30.514Z,77.25
2023-05-11T09:30:34.200Z,77.44
2023-05-11T09:31:36.670Z,77.45
2023-05-11T09:32:54.999Z,77.43
2023-05-11T09:34:10.617Z,77.28
2023-05-11T09:35:32.098Z,77.12
2023-05-11T09:36:33.974Z,77.14
2023-05-11T09:37:36.827Z,77.31
2023-05-11T09:38:38.700Z,77.27
2023-05-11T09:39:57.443Z,77.28
2023-05-11T09:41:03.707Z,76.79
2023-05-11T09:42:18.738Z,76.98
2023-05-11T09:43:30.860Z,77.01
2023-05-11T09:44:32.745Z,77.07
2023-05-11T09:45:36.050Z,77.71
2023-05-11T09:46:38.870Z,77.66
2023-05-11T09:47:41.332Z,77.56
2023-05-11T09:48:43.302Z,77.28
2023-05-11T09:49:45.869Z,77.23
2023-05-11T09:50:48.533Z,77.19
2023-05-11T09:52:00.835Z,76.93
2023-05-11T09:53:03.066Z,76.81
2023-05-11T09:54:21.309Z,77.15
2023-05-11T09:55:23.221Z,77.63
2023-05-11T09:56:42.465Z,77.37
2023-05-11T09:57:53.191Z,77.61
2023-05-11T09:58:57.748Z,78.14
2023-05-11T10:00:00.789Z,78.45
2023-05-11T10:01:02.613Z,78.75
2023-05-11T10:02:22.900Z,78.65
2023-05-11T10:03:27.191Z,78.26
2023-05-11T10:04:29.901Z,78.13
2023-05-11T10:05:33.136Z,78.43
2023-05-11T10:06:47.562Z,78.43
2023-05-11T10:07:57.119Z,78.80
2023-05-11T10:09:08.738Z,79.13
2023-05-11T10:10:12.194Z,78.86
2023-05-11T10:11:14.260Z,79.45
2023-05-11T10:12:16.124Z,79.80
2023-05-11T10:13:18.068Z,79.39
2023-05-11T10:14:20.146Z,79.42
2023-05-11T10:15:25.541Z,79.32
2023-05-11T10:16:28.245Z,79.65
2023-05-11T10:17:31.017Z,79.27
2023-05-11T10:18:33.718Z,79.40
2023-05-11T10:19:35.804Z,79.16
2023-05-11T10:20:39.135Z,79.02
2023-05-11T10:21:41.532Z,78.76
2023-05-11T10:22:43.590Z,78.87
2023-05-11T10:23:45.587Z,78.77
2023-05-11T10:24:47.889Z,78.91
2023-05-11T10:25:50.214Z,79.00
2023-05-11T10:26:52.669Z,78.86
2023-05-11T10:27:55.287Z,78.74
2023-05-11T10:28:57.181Z,78.93
2023-05-11T10:29:59.733Z,79.06
2023-05-11T10:31:03.892Z,79.00
2023-05-11T10:32:07.600Z,79.08
2023-05-11T10:33:11.204Z,78.87
2023-05-11T10:34:13.194Z,78.77
2023-05-11T10:35:15.232Z,78.88
2023-05-11T10:36:19.220Z,77.85
2023-05-11T10:37:21.936Z,77.19
2023-05-11T10:38:25.153Z,77.41
2023-05-11T10:39:27.068Z,77.12
2023-05-11T10:40:29.426Z,77.65
2023-05-11T10:41:34.107Z,77.87
2023-05-11T10:42:45.115Z,78.60
2023-05-11T10:43:56.103Z,78.46
2023-05-11T10:45:01.892Z,78.67
2023-05-11T10:46:22.869Z,78.63
2023-05-11T10:47:24.814Z,78.93
2023-05-11T10:48:32.640Z,78.92
2023-05-11T10:49:34.853Z,78.58
2023-05-11T10:50:53.824Z,78.75
2023-05-11T10:52:11.342Z,78.21
2023-05-11T10:53:13.256Z,76.90
2023-05-11T10:54:27.934Z,76.88
2023-05-11T10:55:55.791Z,75.62
2023-05-11T10:57:03.585Z,76.54
2023-05-11T10:58:15.649Z,76.27
2023-05-11T10:59:30.020Z,76.42
2023-05-11T11:00:50.835Z,76.05
2023-05-11T11:01:55.025Z,75.60
2023-05-11T11:02:58.452Z,75.49
2023-05-11T11:04:03.579Z,74.86
2023-05-11T11:05:08.918Z,74.88
2023-05-11T11:06:22.970Z,74.81
2023-05-11T11:07:24.888Z,75.27
2023-05-11T11:08:26.786Z,75.16
2023-05-11T11:09:28.604Z,74.88
2023-05-11T11:10:37.733Z,74.94
2023-05-11T11:11:40.990Z,74.43
2023-05-11T11:13:01.842Z,74.76
2023-05-11T11:14:06.196Z,74.92
2023-05-11T11:15:08.323Z,75.08
2023-05-11T11:16:10.342Z,74.92
2023-05-11T11:17:18.484Z,74.99
2023-05-11T11:18:21.354Z,74.29
2023-05-11T11:19:28.948Z,74.45
2023-05-11T11:20:47.505Z,75.13
2023-05-11T11:21:49.493Z,75.03
2023-05-11T11:22:51.397Z,75.03
2023-05-11T11:23:53.271Z,75.10
2023-05-11T11:24:55.218Z,74.52
2023-05-11T11:25:57.101Z,75.10
2023-05-11T11:26:58.991Z,75.24
2023-05-11T11:28:00.861Z,75.32
2023-05-11T11:29:08.772Z,75.28
2023-05-11T11:30:21.537Z,75.09
2023-05-11T11:31:33.857Z,75.54
2023-05-11T11:32:35.996Z,75.42
2023-05-11T11:33:37.876Z,75.51
2023-05-11T11:34:39.806Z,75.92
2023-05-11T11:35:41.873Z,75.96
2023-05-11T11:36:56.424Z,76.19
2023-05-11T11:38:04.853Z,75.75
2023-05-11T11:39:06.722Z,75.89
2023-05-11T11:40:14.740Z,75.86
2023-05-11T11:41:28.686Z,76.33
2023-05-11T11:42:30.639Z,76.06
2023-05-11T11:43:45.300Z,75.64
2023-05-11T11:44:47.347Z,75.80
2023-05-11T11:46:02.267Z,76.06
2023-05-11T11:47:22.856Z,76.58
2023-05-11T11:48:24.791Z,77.27
2023-05-11T11:49:27.515Z,77.21
2023-05-11T11:50:29.560Z,77.35
2023-05-11T11:51:33.584Z,77.64
2023-05-11T11:52:35.643Z,77.57
2023-05-11T11:53:44.713Z,77.58
2023-05-11T11:54:46.722Z,77.26
2023-05-11T11:55:50.459Z,77.46
2023-05-11T11:56:52.283Z,77.50
2023-05-11T11:57:54.150Z,77.40
2023-05-11T11:58:56.091Z,76.84
2023-05-11T11:59:58.109Z,76.95
2023-05-11T12:01:00.032Z,76.68
2023-05-11T12:02:02.835Z,76.21
2023-05-11T12:03:04.881Z,76.52
2023-05-11T12:04:18.782Z,76.34
2023-05-11T12:05:23.609Z,76.51
2023-05-11T12:06:28.809Z,76.56
2023-05-11T12:07:33.432Z,76.30
2023-05-11T12:08:36.153Z,76.63
2023-05-11T12:09:38.546Z,76.79
2023-05-11T12:10:40.480Z,76.76
2023-05-11T12:11:46.094Z,76.71
2023-05-11T12:12:48.979Z,76.72
2023-05-11T12:13:51.297Z,76.66
2023-05-11T12:14:53.464Z,76.69
2023-05-11T12:16:12.587Z,77.23
2023-05-11T12:17:16.700Z,76.48
2023-05-11T12:18:21.982Z,77.20
2023-05-11T12:19:26.713Z,76.88
2023-05-11T12:20:29.344Z,77.14
2023-05-11T12:21:32.611Z,76.94
2023-05-11T12:22:36.759Z,76.85
2023-05-11T12:23:38.569Z,77.01
2023-05-11T12:24:41.650Z,76.98
2023-05-11T12:25:43.606Z,77.13
2023-05-11T12:26:45.435Z,77.25
2023-05-11T12:28:01.352Z,77.29
2023-05-11T12:29:07.382Z,77.45
2023-05-11T12:30:09.686Z,77.62
2023-05-11T12:31:11.548Z,79.15
2023-05-11T12:32:14.396Z,79.86
2023-05-11T12:33:16.536Z,79.72
2023-05-11T12:34:19.797Z,79.37
2023-05-11T12:35:29.113Z,79.45
2023-05-11T12:36:31.061Z,79.90
2023-05-11T12:37:33.223Z,79.79
2023-05-11T12:38:43.132Z,79.73
2023-05-11T12:39:45.871Z,79.82
2023-05-11T12:40:52.397Z,80.40
2023-05-11T12:41:55.701Z,80.38
2023-05-11T12:42:58.481Z,80.11
2023-05-11T12:44:01.297Z,79.62
2023-05-11T12:45:04.406Z,79.77
2023-05-11T12:46:06.600Z,80.13
2023-05-11T12:47:11.137Z,80.69
2023-05-11T12:48:13.822Z,80.40
2023-05-11T12:49:26.307Z,80.98
2023-05-11T12:50:28.951Z,80.89
2023-05-11T12:51:47.438Z,80.80
2023-05-11T12:52:50.801Z,80.58
2023-05-11T12:53:52.768Z,80.51
2023-05-11T12:55:00.661Z,80.47
2023-05-11T12:56:03.263Z,80.40
2023-05-11T12:57:06.283Z,81.07
2023-05-11T12:58:09.366Z,81.27
2023-05-11T12:59:24.018Z,81.34
2023-05-11T13:00:25.973Z,81.42
2023-05-11T13:01:29.315Z,81.31
2023-05-11T13:02:31.352Z,81.61
2023-05-11T13:03:37.023Z,81.57
2023-05-11T13:04:39.907Z,81.60
2023-05-11T13:05:41.951Z,81.84
2023-05-11T13:06:45.425Z,81.67
2023-05-11T13:07:48.921Z,81.61
2023-05-11T13:08:52.230Z,81.61
2023-05-11T13:09:58.595Z,81.53
2023-05-11T13:11:19.318Z,81.35
2023-05-11T13:12:21.460Z,81.28
2023-05-11T13:13:29.727Z,80.97
2023-05-11T13:14:31.907Z,81.34
2023-05-11T13:15:33.991Z,81.31
2023-05-11T13:16:35.956Z,80.86
2023-05-11T13:17:38.819Z,80.42
2023-05-11T13:18:57.176Z,80.05
2023-05-11T13:20:17.244Z,79.67
2023-05-11T13:21:19.776Z,79.27
2023-05-11T13:22:21.776Z,79.28
2023-05-11T13:23:23.707Z,79.21
2023-05-11T13:24:26.705Z,78.96
2023-05-11T13:25:28.592Z,79.35
2023-05-11T13:26:31.363Z,79.52
2023-05-11T13:27:33.211Z,79.85
2023-05-11T13:28:35.110Z,79.80
2023-05-11T13:29:39.849Z,79.92
2023-05-11T13:30:42.250Z,79.62
2023-05-11T13:31:44.344Z,79.13
2023-05-11T13:32:46.285Z,79.12
2023-05-11T13:33:51.019Z,78.96
2023-05-11T13:34:53.039Z,78.58
2023-05-11T13:35:54.895Z,78.31
2023-05-11T13:36:57.450Z,78.47
2023-05-11T13:37:59.366Z,78.13
2023-05-11T13:39:01.324Z,78.50
2023-05-11T13:40:04.213Z,78.54
2023-05-11T13:41:07.042Z,78.86
2023-05-11T13:42:08.854Z,78.86